createdAt,value
2022-09-27T00:01:44.257Z,19.44
2022-09-27T00:06:42.563Z,19.67
2022-09-27T00:11:45.999Z,19.56
2022-09-27T00:16:47.556Z,19.48
2022-09-27T00:21:47.675Z,19.74
2022-09-27T00:26:49.401Z,19.17
2022-09-27T00:31:48.891Z,19.12
2022-09-27T00:36:51.788Z,19.26
2022-09-27T00:42:11.699Z,19.46
2022-09-27T00:47:50.607Z,19.42
2022-09-27T00:52:52.877Z,19.77
2022-09-27T00:57:52.881Z,19.60
2022-09-27T01:02:54.344Z,19.29
2022-09-27T01:08:00.965Z,19.52
2022-09-27T01:13:23.260Z,19.14
2022-09-27T01:18:41.625Z,19.59
2022-09-27T01:23:53.089Z,19.61
2022-09-27T01:29:16.986Z,19.46
2022-09-27T01:34:29.635Z,19.71
2022-09-27T01:39:57.573Z,19.42
2022-09-27T01:45:10.739Z,19.26
2022-09-27T01:50:50.707Z,19.51
2022-09-27T01:55:54.588Z,19.39
2022-09-27T02:01:20.719Z,19.31
2022-09-27T02:06:31.683Z,19.39
2022-09-27T02:11:55.944Z,19.39
2022-09-27T02:17:34.882Z,19.57
2022-09-27T02:22:54.100Z,19.51
2022-09-27T02:28:29.716Z,19.46
2022-09-27T02:33:50.061Z,19.28
2022-09-27T02:38:47.916Z,19.24
2022-09-27T02:43:50.774Z,19.25
2022-09-27T02:49:26.405Z,19.38
2022-09-27T02:55:01.643Z,19.36
2022-09-27T03:00:33.036Z,19.28
2022-09-27T03:06:06.639Z,18.89
2022-09-27T03:11:05.892Z,19.07
2022-09-27T03:16:08.067Z,18.62
2022-09-27T03:21:26.415Z,18.76
2022-09-27T03:26:28.685Z,18.62
2022-09-27T03:31:28.051Z,18.48
2022-09-27T03:37:00.269Z,18.22
2022-09-27T03:41:59.412Z,18.26
2022-09-27T03:47:01.131Z,18.26
2022-09-27T03:52:03.905Z,18.01
2022-09-27T03:57:05.484Z,18.20
2022-09-27T04:02:07.929Z,18.29
2022-09-27T04:07:27.032Z,18.18
2022-09-27T04:12:25.178Z,18.36
2022-09-27T04:17:25.775Z,18.23
2022-09-27T04:22:46.552Z,18.37
2022-09-27T04:27:58.820Z,18.50
2022-09-27T04:33:02.224Z,18.25
2022-09-27T04:38:25.708Z,18.42
2022-09-27T04:43:26.375Z,18.33
2022-09-27T04:48:24.142Z,17.98
2022-09-27T04:53:24.438Z,17.85
2022-09-27T04:58:24.633Z,18.25
2022-09-27T05:03:26.944Z,18.31
2022-09-27T05:08:29.404Z,18.31
2022-09-27T05:13:55.989Z,18.20
2022-09-27T05:18:55.591Z,18.20
2022-09-27T05:24:33.381Z,18.23
2022-09-27T05:29:35.369Z,18.17
2022-09-27T05:34:44.691Z,18.21
2022-09-27T05:39:52.635Z,18.58
2022-09-27T05:44:51.184Z,18.90
2022-09-27T05:49:50.081Z,18.81
2022-09-27T05:54:49.803Z,19.18
2022-09-27T05:59:49.845Z,19.31
2022-09-27T06:04:51.214Z,19.23
2022-09-27T06:10:09.808Z,19.41
2022-09-27T06:15:13.351Z,19.38
2022-09-27T06:20:17.936Z,19.53
2022-09-27T06:25:17.018Z,19.61
2022-09-27T06:30:38.644Z,19.47
2022-09-27T06:35:45.465Z,19.40
2022-09-27T06:40:47.454Z,19.52
2022-09-27T06:46:09.273Z,19.77
2022-09-27T06:51:18.406Z,19.69
2022-09-27T06:56:20.560Z,19.50
2022-09-27T07:01:20.889Z,19.38
2022-09-27T07:06:40.434Z,18.95
2022-09-27T07:11:56.807Z,19.23
2022-09-27T07:16:56.051Z,19.68
2022-09-27T07:21:55.881Z,20.13
2022-09-27T07:26:56.276Z,20.28
2022-09-27T07:31:57.240Z,20.65
2022-09-27T07:37:00.681Z,20.38
2022-09-27T07:42:02.651Z,20.68
2022-09-27T07:47:01.271Z,20.55
2022-09-27T07:52:23.079Z,20.51
2022-09-27T07:57:45.708Z,21.12
2022-09-27T08:02:44.387Z,20.96
2022-09-27T08:07:42.699Z,20.92
2022-09-27T08:12:43.699Z,20.85
2022-09-27T08:17:42.918Z,20.63
2022-09-27T08:22:59.356Z,20.47
2022-09-27T08:28:08.260Z,20.27
2022-09-27T08:33:21.780Z,20.00
2022-09-27T08:38:22.922Z,20.06
2022-09-27T08:43:40.503Z,20.34
2022-09-27T08:48:43.751Z,20.32
2022-09-27T08:53:56.866Z,20.28
2022-09-27T08:59:07.403Z,20.55
2022-09-27T09:04:05.939Z,20.95
2022-09-27T09:09:29.574Z,21.47
2022-09-27T09:14:46.197Z,21.45
2022-09-27T09:19:48.096Z,20.81
2022-09-27T09:25:10.397Z,20.66
2022-09-27T09:30:18.577Z,21.10
2022-09-27T09:35:31.531Z,21.00
2022-09-27T09:40:36.047Z,21.06
2022-09-27T09:45:41.900Z,21.58
2022-09-27T09:51:03.450Z,21.76
2022-09-27T09:56:16.560Z,21.86
2022-09-27T10:01:45.749Z,21.44
2022-09-27T10:06:45.653Z,21.65
2022-09-27T10:11:48.891Z,21.20
2022-09-27T10:16:58.749Z,20.97
2022-09-27T10:22:03.980Z,21.42
2022-09-27T10:27:04.368Z,21.52
2022-09-27T10:32:33.686Z,21.33
2022-09-27T10:37:55.314Z,20.61
2022-09-27T10:43:00.228Z,21.17
2022-09-27T10:48:21.293Z,21.01
2022-09-27T10:53:24.785Z,21.07
2022-09-27T10:58:39.516Z,21.69
2022-09-27T11:03:53.954Z,21.87
2022-09-27T11:08:54.165Z,21.14
2022-09-27T11:14:08.273Z,21.36
2022-09-27T11:19:50.530Z,21.06
2022-09-27T11:25:16.831Z,21.65
2022-09-27T11:30:22.399Z,21.55
2022-09-27T11:35:50.075Z,21.63
2022-09-27T11:41:08.753Z,21.99
2022-09-27T11:46:29.941Z,22.14
2022-09-27T11:51:37.970Z,22.16
2022-09-27T11:56:45.439Z,22.45
2022-09-27T12:01:52.577Z,22.17
2022-09-27T12:06:56.205Z,22.40
2022-09-27T12:12:05.066Z,22.70
2022-09-27T12:17:09.999Z,22.93
2022-09-27T12:22:14.239Z,22.87
2022-09-27T12:27:20.963Z,22.97
2022-09-27T12:32:33.964Z,23.00
2022-09-27T12:37:34.751Z,22.60
2022-09-27T12:42:45.476Z,22.80
2022-09-27T12:48:24.354Z,22.60
2022-09-27T12:53:34.653Z,22.64
2022-09-27T12:58:57.185Z,22.62
2022-09-27T13:04:21.019Z,22.74
2022-09-27T13:09:39.379Z,22.66
2022-09-27T13:15:00.762Z,22.48
2022-09-27T13:20:00.112Z,22.74
2022-09-27T13:25:03.217Z,22.51
2022-09-27T13:30:26.420Z,23.21
2022-09-27T13:35:26.996Z,22.98
2022-09-27T13:40:34.085Z,22.42
2022-09-27T13:45:58.047Z,23.02
2022-09-27T13:51:00.644Z,22.99
2022-09-27T13:56:00.367Z,23.55
2022-09-27T14:01:30.740Z,23.41
2022-09-27T14:06:35.377Z,23.60
2022-09-27T14:11:40.985Z,23.20
2022-09-27T14:16:42.986Z,23.15
2022-09-27T14:21:45.686Z,23.30
2022-09-27T14:27:22.692Z,23.32
2022-09-27T14:32:28.375Z,22.85
2022-09-27T14:37:36.193Z,22.62
2022-09-27T14:42:44.581Z,22.39
2022-09-27T14:47:47.468Z,22.35
2022-09-27T14:52:47.190Z,22.21
2022-09-27T14:57:58.874Z,22.27
2022-09-27T15:02:59.809Z,22.12
2022-09-27T15:08:01.310Z,22.16
2022-09-27T15:13:03.667Z,21.94
2022-09-27T15:18:03.062Z,21.83
2022-09-27T15:23:03.329Z,21.50
2022-09-27T15:28:17.089Z,21.47
2022-09-27T15:33:30.029Z,21.23
2022-09-27T15:38:50.648Z,21.37
2022-09-27T15:43:56.971Z,21.16
2022-09-27T15:49:17.777Z,21.34
2022-09-27T15:54:20.976Z,21.10
2022-09-27T15:59:25.825Z,20.52
2022-09-27T16:04:23.767Z,20.45
2022-09-27T16:09:25.302Z,20.75
2022-09-27T16:14:24.201Z,20.52
2022-09-27T16:19:26.318Z,20.87
2022-09-27T16:24:25.684Z,20.85
2022-09-27T16:29:23.818Z,20.69
2022-09-27T16:34:25.863Z,20.83
2022-09-27T16:39:25.975Z,20.62
2022-09-27T16:44:27.279Z,20.62
2022-09-27T16:49:49.779Z,20.43
2022-09-27T16:54:48.327Z,20.16
2022-09-27T16:59:48.234Z,19.87
2022-09-27T17:04:45.970Z,19.93
2022-09-27T17:09:45.136Z,20.07
2022-09-27T17:14:43.105Z,19.81
2022-09-27T17:19:41.425Z,19.89
2022-09-27T17:24:41.612Z,19.84
2022-09-27T17:29:42.791Z,19.73
2022-09-27T17:34:44.771Z,19.85
2022-09-27T17:39:46.336Z,19.89
2022-09-27T17:44:44.662Z,19.79
2022-09-27T17:50:01.979Z,19.81
2022-09-27T17:55:01.320Z,19.84
2022-09-27T18:00:02.167Z,19.72
2022-09-27T18:05:13.485Z,19.80
2022-09-27T18:10:16.847Z,19.80
2022-09-27T18:15:18.087Z,19.77
2022-09-27T18:20:16.928Z,19.70
2022-09-27T18:25:18.261Z,19.82
2022-09-27T18:30:22.531Z,19.72
2022-09-27T18:35:23.206Z,19.78
2022-09-27T18:40:44.524Z,19.96
2022-09-27T18:45:42.608Z,20.16
2022-09-27T18:50:40.004Z,19.87
2022-09-27T18:55:42.167Z,19.95
2022-09-27T19:00:42.268Z,19.81
2022-09-27T19:05:40.335Z,19.69
2022-09-27T19:10:42.225Z,19.53
2022-09-27T19:15:40.903Z,19.54
2022-09-27T19:20:42.016Z,19.65
2022-09-27T19:25:40.497Z,19.85
2022-09-27T19:30:47.980Z,20.01
2022-09-27T19:35:49.401Z,19.89
2022-09-27T19:40:54.610Z,19.59
2022-09-27T19:45:54.109Z,19.79
2022-09-27T19:51:00.498Z,19.80
2022-09-27T19:56:06.236Z,19.06
2022-09-27T20:01:19.312Z,17.11
2022-09-27T20:06:19.406Z,16.42
2022-09-27T20:11:19.526Z,16.42
2022-09-27T20:16:25.756Z,16.25
2022-09-27T20:21:26.985Z,16.54
2022-09-27T20:26:29.331Z,16.55
2022-09-27T20:31:38.116Z,16.66
2022-09-27T20:36:44.446Z,16.72
2022-09-27T20:41:44.357Z,16.77
2022-09-27T20:46:45.580Z,16.93
2022-09-27T20:51:51.923Z,17.14
2022-09-27T20:56:51.085Z,16.95
2022-09-27T21:01:50.883Z,16.90
2022-09-27T21:06:52.577Z,16.46
2022-09-27T21:11:54.368Z,16.37
2022-09-27T21:16:53.454Z,16.62
2022-09-27T21:21:53.910Z,16.51
2022-09-27T21:26:55.966Z,16.44
2022-09-27T21:31:57.470Z,16.44
2022-09-27T21:36:59.400Z,16.59
2022-09-27T21:42:00.093Z,16.57
2022-09-27T21:47:02.576Z,16.74
2022-09-27T21:52:04.502Z,16.70
2022-09-27T21:57:05.207Z,16.74
2022-09-27T22:02:11.695Z,17.01
2022-09-27T22:07:10.806Z,16.63
2022-09-27T22:12:11.971Z,16.95
2022-09-27T22:17:12.998Z,16.74
2022-09-27T22:22:14.205Z,16.62
2022-09-27T22:27:17.566Z,16.58
2022-09-27T22:32:16.854Z,16.77
2022-09-27T22:37:15.322Z,16.66
2022-09-27T22:42:13.831Z,16.77
2022-09-27T22:47:12.559Z,16.74
2022-09-27T22:52:15.638Z,16.59
2022-09-27T22:57:17.902Z,16.62
2022-09-27T23:02:20.681Z,16.56
2022-09-27T23:07:45.087Z,16.94
2022-09-27T23:18:06.577Z,16.66
2022-09-27T23:23:17.398Z,16.73
2022-09-27T23:28:15.814Z,16.51
2022-09-27T23:33:16.994Z,16.68
2022-09-27T23:38:15.799Z,16.78
2022-09-27T23:43:14.471Z,16.80
2022-09-27T23:48:14.831Z,16.78
2022-09-27T23:53:13.779Z,16.78
2022-09-27T23:58:15.648Z,16.76
